Briefing drone pour Auxonne

Rechercher une autre localisation

Conditions de vol :


Nous sommes le : Vendredi 22 octobre 2021
Il est 12:03 UTC (14:03 LT)

Lever de soleil : 05:40 UTC (07:40 LT)
Coucher de soleil : 17:05 UTC (19:05 LT)

Météo

L'essentiel des conditions de vol

VIGILANCE MÉTÉO FRANCE - Côte-dOr (21)
Pas de vigilances particulieres
CARTES DES FRONTS
METAR de LFSD
LFSD 221200Z AUTO 02005KT 320V060 CAVOK 12/05 Q1023

Date d'émission: 22/10/2021
Heure d'émission: 12:00 UTC
Vent: 020° (variable du 320° au 060°) pour 5 KT (9 km/h)
Visibilité horizontale: > 10 km
Plafond : Plafond et visibilité OK (CAVOK)
Température: 12 °C
Point de rosée: 5 °C
Humidité: 62%
Pression (QNH): 1023 hPa
TAF de LFSD
LFSD 010600Z 0100/0124 CNL

Conditions prévues :

Heure d'émission : Bulletin éffectué le 01 à 00:00 UTC
Prévision : Valide du 01 a 00:00 UTC au 01 a 23:59 UTC
Nuages : à 0ft (0 m)
WEBCAM POUR AUXONNE

Réglementation

Voler en sécurité

CARTES AERONAUTIQUE 1/500.000
CARTES VAC (LFSD)
SUP AIP




Chargement des AIP...
NOTAM (AUXONNE + Terrain à proximité / FIR )




Chargement des NOTAMS...
CONTACT PREFECTURE 21
Côte-dOr (21) : pref-drone@cote-dor.gouv.fr


Avertissement : Les données mises à disposition sont indicatives. Oxygène Drone ne pourra être tenu responsable de dégâts causés aux biens et aux personnes.